Time;durP1;ratioP1;P1;durP2;ratioP2;P2;SDS_P1;SDS_P2;PMS_P1;PMS_P2;Temp;Humidity;BMP_temperature;BMP_pressure;BME280_temperature;BME280_humidity;BME280_pressure;Samples;Min_cycle;Max_cycle;Signal;HPM_P1;HPM_P2
2022/02/03 00:01:21;;;;;;;9.02;1.05;;;;;;;2.32;100.00;100876.41;5046896;28;20120;-83
2022/02/03 00:03:52;;;;;;;10.75;1.25;;;;;;;2.23;100.00;100855.19;5047242;28;20036;-84
2022/02/03 00:06:28;;;;;;;14.80;1.50;;;;;;;2.28;100.00;100863.53;5029524;28;20097;-85
2022/02/03 00:09:19;;;;;;;12.90;1.58;;;;;;;2.28;100.00;100859.06;5048409;28;20063;-85
2022/02/03 00:25:21;;;;;;;16.60;1.73;;;;;;;2.28;100.00;100860.88;5029757;28;20092;-85
2022/02/03 00:30:32;;;;;;;16.88;1.70;;;;;;;2.27;100.00;100849.44;5049033;28;20088;-86
2022/02/03 00:35:49;;;;;;;24.58;2.10;;;;;;;2.34;100.00;100861.13;5050915;28;20053;-85
2022/02/03 00:49:04;;;;;;;20.90;2.13;;;;;;;2.50;100.00;100857.03;5049863;28;20044;-84
2022/02/03 00:51:30;;;;;;;25.25;2.70;;;;;;;2.57;100.00;100858.13;5047090;28;20112;-84
2022/02/03 00:53:56;;;;;;;22.02;2.67;;;;;;;2.53;100.00;100838.16;5048043;28;20477;-83
2022/02/03 00:56:29;;;;;;;21.98;2.65;;;;;;;2.66;100.00;100856.44;5045836;28;20060;-83
2022/02/03 00:59:05;;;;;;;21.50;2.10;;;;;;;2.48;100.00;100843.06;5045093;28;20116;-83
2022/02/03 01:01:35;;;;;;;20.58;1.90;;;;;;;2.37;100.00;100830.81;5047466;28;20056;-84
2022/02/03 01:04:10;;;;;;;14.88;2.53;;;;;;;2.41;100.00;100863.22;5047604;28;20052;-83
2022/02/03 01:06:43;;;;;;;18.60;1.88;;;;;;;2.38;100.00;100859.03;5045751;28;20163;-85
2022/02/03 01:09:09;;;;;;;27.52;2.40;;;;;;;2.44;100.00;100866.41;5047637;28;20035;-83
2022/02/03 01:11:45;;;;;;;13.70;2.45;;;;;;;2.39;100.00;100866.03;5045377;28;20059;-83
2022/02/03 01:14:17;;;;;;;26.20;2.80;;;;;;;2.55;100.00;100870.72;5046495;28;20037;-84
2022/02/03 01:43:48;;;;;;;27.00;3.63;;;;;;;2.24;100.00;100868.28;5043414;28;19920;-83
2022/02/03 01:46:17;;;;;;;17.73;2.85;;;;;;;2.24;100.00;100864.81;5044302;28;20101;-82
2022/02/03 01:54:03;;;;;;;25.45;3.40;;;;;;;2.29;100.00;100866.06;5028492;28;20114;-83
2022/02/03 01:56:50;;;;;;;21.27;2.83;;;;;;;2.27;100.00;100881.28;5045733;28;20071;-83
2022/02/03 01:59:24;;;;;;;15.57;3.88;;;;;;;2.14;100.00;100871.97;5024052;28;20379;-83
2022/02/03 02:01:57;;;;;;;15.97;2.20;;;;;;;2.16;100.00;100878.81;5022532;28;20057;-83
2022/02/03 02:05:00;;;;;;;21.17;3.35;;;;;;;2.20;100.00;100872.22;5045211;28;20030;-84
2022/02/03 02:07:55;;;;;;;18.50;2.83;;;;;;;2.19;100.00;100870.56;5034716;28;20466;-83
2022/02/03 02:11:32;;;;;;;16.08;2.38;;;;;;;2.19;100.00;100859.09;5014278;28;20080;-82
2022/02/03 02:19:59;;;;;;;16.77;2.35;;;;;;;2.34;100.00;100862.97;4997724;28;20045;-83
2022/02/03 02:40:32;;;;;;;17.52;1.80;;;;;;;2.52;100.00;100853.25;5024375;28;20041;-82
2022/02/03 02:43:03;;;;;;;20.85;2.00;;;;;;;2.48;100.00;100843.91;5038116;28;20030;-82
2022/02/03 02:45:40;;;;;;;17.08;1.60;;;;;;;2.64;100.00;100864.53;5042015;28;20021;-82
2022/02/03 02:48:11;;;;;;;16.10;1.50;;;;;;;2.58;100.00;100850.03;5038979;28;20063;-82
2022/02/03 02:50:52;;;;;;;15.13;1.95;;;;;;;2.60;100.00;100841.91;5037416;28;20025;-82
2022/02/03 02:53:59;;;;;;;18.08;2.33;;;;;;;2.74;100.00;100865.31;5039468;28;20081;-83
2022/02/03 02:56:50;;;;;;;22.20;2.28;;;;;;;2.73;100.00;100868.13;5038475;28;20093;-83
2022/02/03 03:35:42;;;;;;;13.40;1.23;;;;;;;2.44;100.00;100815.13;5040006;28;20413;-82
2022/02/03 03:38:10;;;;;;;19.42;1.50;;;;;;;2.50;100.00;100835.78;5038220;28;20028;-82
2022/02/03 03:40:39;;;;;;;14.90;1.40;;;;;;;2.50;100.00;100849.06;5023042;28;20029;-81
2022/02/03 03:43:06;;;;;;;22.00;1.65;;;;;;;2.45;100.00;100848.66;5022062;28;20534;-82
2022/02/03 03:45:33;;;;;;;9.95;1.27;;;;;;;2.40;100.00;100849.09;5038563;28;20359;-81
2022/02/03 03:48:08;;;;;;;11.00;1.65;;;;;;;2.28;100.00;100827.19;5039349;28;20056;-80
2022/02/03 03:50:38;;;;;;;10.00;1.27;;;;;;;2.34;100.00;100842.53;5024590;28;20053;-81
2022/02/03 03:53:15;;;;;;;9.25;2.22;;;;;;;2.21;100.00;100836.72;5018046;28;20037;-81
2022/02/03 03:58:49;;;;;;;13.85;2.17;;;;;;;2.03;100.00;100827.84;5037506;28;20029;-81
2022/02/03 05:05:29;;;;;;;17.17;1.15;;;;;;;1.94;100.00;100839.31;5043606;28;20044;-82
2022/02/03 05:08:27;;;;;;;11.95;1.40;;;;;;;1.94;100.00;100837.47;5039499;28;20022;-82
2022/02/03 05:11:46;;;;;;;9.70;1.13;;;;;;;1.92;100.00;100823.53;5034721;28;20152;-82
2022/02/03 05:46:35;;;;;;;27.27;5.13;;;;;;;2.30;100.00;100816.44;5019241;28;20022;-83
2022/02/03 06:05:33;;;;;;;15.55;3.63;;;;;;;2.26;100.00;100792.00;5004162;28;20065;-82
2022/02/03 06:21:41;;;;;;;20.02;4.13;;;;;;;2.26;100.00;100799.13;5005658;28;20106;-83
2022/02/03 06:24:18;;;;;;;22.17;4.00;;;;;;;2.30;100.00;100801.34;5022602;28;20034;-84
2022/02/03 06:29:31;;;;;;;21.23;5.13;;;;;;;2.27;100.00;100798.97;5027642;28;20109;-83
2022/02/03 06:31:57;;;;;;;22.00;5.30;;;;;;;2.23;100.00;100792.28;5028327;28;20054;-82
2022/02/03 06:34:23;;;;;;;18.20;5.13;;;;;;;2.27;100.00;100798.16;5025693;28;20094;-83
2022/02/03 06:36:51;;;;;;;23.02;5.43;;;;;;;2.27;100.00;100796.31;5024975;28;20029;-83
2022/02/03 06:39:25;;;;;;;17.98;5.45;;;;;;;2.18;100.00;100781.25;5021537;28;20034;-83
2022/02/03 06:41:54;;;;;;;23.25;5.82;;;;;;;2.25;100.00;100795.66;5025339;28;20056;-83
2022/02/03 06:44:25;;;;;;;20.42;5.55;;;;;;;2.10;100.00;100773.19;5026240;28;20026;-84
2022/02/03 06:46:53;;;;;;;27.08;6.00;;;;;;;2.13;100.00;100778.22;5024474;28;20052;-82
2022/02/03 06:49:29;;;;;;;28.90;6.50;;;;;;;2.20;100.00;100784.63;5024284;28;20093;-83
2022/02/03 06:52:05;;;;;;;22.15;6.00;;;;;;;2.22;100.00;100793.28;5024063;28;20535;-81
2022/02/03 06:54:44;;;;;;;19.33;5.78;;;;;;;2.24;100.00;100791.31;5026242;28;20040;-82
2022/02/03 06:57:16;;;;;;;26.17;6.13;;;;;;;2.21;100.00;100783.63;5020845;28;20030;-82
2022/02/03 06:59:51;;;;;;;25.10;5.93;;;;;;;2.27;100.00;100785.69;5022366;28;20030;-82
2022/02/03 07:02:17;;;;;;;;;;;;;;;2.28;100.00;100779.41;4991372;28;20065;-82
2022/02/03 07:04:45;;;;;;;24.58;5.65;;;;;;;2.22;100.00;100769.38;5024685;28;20190;-83
2022/02/03 07:07:15;;;;;;;23.42;5.80;;;;;;;2.29;100.00;100774.94;5011489;28;20045;-86
2022/02/03 07:09:42;;;;;;;19.42;5.95;;;;;;;2.22;100.00;100758.78;5033949;28;19998;-87
2022/02/03 07:12:08;;;;;;;20.00;5.65;;;;;;;2.29;100.00;100769.66;5036532;28;20037;-89
2022/02/03 07:14:35;;;;;;;20.70;6.82;;;;;;;2.30;100.00;100771.31;5036331;28;20030;-88
2022/02/03 07:17:02;;;;;;;26.35;6.10;;;;;;;2.27;100.00;100766.28;5036962;28;20060;-88
2022/02/03 07:19:27;;;;;;;31.55;7.50;;;;;;;2.26;100.00;100778.72;5050442;28;20025;-88
2022/02/03 07:21:53;;;;;;;21.75;7.20;;;;;;;2.22;100.00;100769.38;5037023;28;20030;-86
2022/02/03 07:24:19;;;;;;;25.35;7.10;;;;;;;2.17;100.00;100753.06;5031033;28;20030;-86
2022/02/03 07:26:44;;;;;;;27.10;6.13;;;;;;;2.24;100.00;100764.75;5033096;28;20041;-86
2022/02/03 07:29:10;;;;;;;24.60;6.93;;;;;;;2.32;100.00;100772.00;5034101;28;20041;-86
2022/02/03 07:31:36;;;;;;;31.63;6.55;;;;;;;2.35;100.00;100769.91;5034842;28;20046;-87
2022/02/03 07:34:09;;;;;;;24.70;6.35;;;;;;;2.31;100.00;100749.91;5024198;28;20045;-87
2022/02/03 07:36:35;;;;;;;35.83;6.78;;;;;;;2.33;100.00;100749.78;5019308;28;20045;-86
2022/02/03 07:39:02;;;;;;;29.70;6.28;;;;;;;2.43;100.00;100763.00;4994901;28;20038;-85
2022/02/03 07:41:27;;;;;;;34.80;6.30;;;;;;;2.41;100.00;100759.66;5032293;28;20030;-81
2022/02/03 07:43:53;;;;;;;26.35;6.38;;;;;;;2.43;100.00;100760.34;5025751;28;20052;-83
2022/02/03 07:46:18;;;;;;;28.27;6.30;;;;;;;2.44;100.00;100757.53;5024121;28;20105;-82
2022/02/03 07:48:43;;;;;;;22.38;5.50;;;;;;;2.52;100.00;100767.44;5023413;28;20034;-82
2022/02/03 07:51:09;;;;;;;36.85;6.68;;;;;;;2.56;100.00;100760.84;5028882;28;20026;-88
2022/02/03 07:53:34;;;;;;;32.40;6.15;;;;;;;2.60;100.00;100754.25;5023587;28;20114;-84
2022/02/03 07:56:00;;;;;;;30.58;6.10;;;;;;;2.48;100.00;100732.34;5023107;28;20030;-83
2022/02/03 07:58:25;;;;;;;27.58;5.43;;;;;;;2.63;100.00;100753.94;5023002;28;20079;-84
2022/02/03 08:00:50;;;;;;;30.08;6.80;;;;;;;2.65;100.00;100751.13;5023120;28;20049;-83
2022/02/03 08:03:16;;;;;;;26.92;5.75;;;;;;;2.66;100.00;100747.50;5011097;28;20026;-83
2022/02/03 08:05:46;;;;;;;26.27;5.50;;;;;;;2.74;100.00;100755.56;5039738;28;20026;-83
2022/02/03 08:08:30;;;;;;;31.90;5.70;;;;;;;2.74;100.00;100742.25;5007792;28;20026;-86
2022/02/03 08:11:08;;;;;;;23.60;5.90;;;;;;;2.80;100.00;100747.00;5028357;28;20018;-83
2022/02/03 08:13:45;;;;;;;18.90;5.38;;;;;;;2.83;100.00;100744.88;5006402;28;20034;-81
2022/02/03 08:18:40;;;;;;;22.85;5.35;;;;;;;2.90;100.00;100741.59;5024801;28;20053;-82
2022/02/03 08:21:07;;;;;;;23.33;5.32;;;;;;;2.95;100.00;100734.03;5021951;28;20111;-81
2022/02/03 08:31:07;;;;;;;26.35;5.15;;;;;;;3.06;100.00;100736.44;5024459;28;20063;-79
2022/02/03 08:33:33;;;;;;;25.55;5.13;;;;;;;3.09;100.00;100733.50;5022064;28;20030;-82
2022/02/03 08:36:02;;;;;;;26.77;5.40;;;;;;;3.12;100.00;100727.88;5022841;28;20042;-82
2022/02/03 08:38:44;;;;;;;21.02;5.18;;;;;;;3.17;100.00;100736.22;5027030;28;20028;-82
2022/02/03 08:41:09;;;;;;;24.35;4.63;;;;;;;3.14;100.00;100717.06;5031187;28;20013;-82
2022/02/03 08:43:36;;;;;;;17.55;4.32;;;;;;;3.15;100.00;100702.81;5024086;28;20021;-83
2022/02/03 08:46:05;;;;;;;24.27;5.22;;;;;;;3.27;100.00;100721.00;5024080;28;20033;-81
2022/02/03 08:48:32;;;;;;;25.65;5.22;;;;;;;3.29;100.00;100721.69;5020638;28;20094;-82
2022/02/03 08:50:58;;;;;;;27.70;5.63;;;;;;;3.23;100.00;100708.19;5022958;28;20116;-81
2022/02/03 08:53:38;;;;;;;26.10;6.05;;;;;;;3.33;100.00;100716.06;5020240;28;20073;-82
2022/02/03 08:59:15;;;;;;;32.67;6.65;;;;;;;3.41;100.00;100714.31;5020948;28;20598;-82
2022/02/03 09:39:24;;;;;;;41.95;14.27;;;;;;;3.44;100.00;100651.97;5028394;28;20396;-84
2022/02/03 09:56:01;;;;;;;40.72;13.93;;;;;;;3.55;100.00;100645.59;5032656;28;20515;-87
2022/02/03 10:03:33;;;;;;;39.05;13.75;;;;;;;3.56;100.00;100642.75;5014233;28;20030;-87
2022/02/03 10:06:08;;;;;;;34.83;13.35;;;;;;;3.52;100.00;100636.91;5012034;28;20037;-85
2022/02/03 10:08:35;;;;;;;34.40;14.35;;;;;;;3.55;100.00;100633.09;5031535;28;20044;-84
2022/02/03 10:11:29;;;;;;;34.17;13.57;;;;;;;3.57;100.00;100631.09;5029860;28;20022;-85
2022/02/03 10:14:03;;;;;;;33.53;13.75;;;;;;;3.59;100.00;100625.66;4997547;28;20072;-84
2022/02/03 10:16:34;;;;;;;34.07;13.57;;;;;;;3.52;100.00;100614.81;5018490;28;20432;-82
2022/02/03 10:19:05;;;;;;;33.85;13.55;;;;;;;3.51;100.00;100613.97;5024948;28;20065;-82
2022/02/03 10:21:31;;;;;;;33.42;14.10;;;;;;;3.55;100.00;100621.63;5029224;28;20064;-85
2022/02/03 10:24:08;;;;;;;30.85;13.48;;;;;;;3.59;100.00;100615.00;5031444;28;20049;-85
2022/02/03 10:26:36;;;;;;;29.63;12.85;;;;;;;3.50;100.00;100600.81;5030202;28;20025;-85
2022/02/03 10:29:12;;;;;;;25.58;11.70;;;;;;;3.52;100.00;100607.66;5016863;28;20047;-86
2022/02/03 10:31:40;;;;;;;29.58;12.13;;;;;;;3.46;100.00;100583.50;5029631;28;20026;-87
2022/02/03 10:34:11;;;;;;;25.88;11.40;;;;;;;3.38;100.00;100581.66;5015745;28;20117;-80
2022/02/03 10:37:02;;;;;;;29.95;12.07;;;;;;;3.53;100.00;100601.31;5025944;28;20022;-85
2022/02/03 10:45:23;;;;;;;26.77;9.98;;;;;;;3.46;100.00;100584.34;5018831;28;20459;-83
2022/02/03 10:56:29;;;;;;;16.30;8.13;;;;;;;3.53;100.00;100574.72;5038698;28;20113;-82
2022/02/03 11:06:29;;;;;;;18.52;7.38;;;;;;;3.64;100.00;100563.00;5006832;28;20101;-85
2022/02/03 11:11:32;;;;;;;17.75;6.93;;;;;;;3.69;100.00;100549.19;5028091;28;20116;-84
2022/02/03 11:13:59;;;;;;;13.95;6.95;;;;;;;3.50;100.00;100515.69;5024779;28;20038;-82
2022/02/03 11:16:25;;;;;;;19.20;6.72;;;;;;;3.67;100.00;100533.38;5023333;28;20026;-82
2022/02/03 11:18:53;;;;;;;18.50;6.50;;;;;;;3.53;100.00;100515.38;5028797;28;20030;-83
2022/02/03 11:21:19;;;;;;;21.33;7.43;;;;;;;3.77;100.00;100538.56;5005764;28;20029;-84
2022/02/03 11:23:55;;;;;;;18.58;7.60;;;;;;;3.78;100.00;100532.25;5005266;28;20030;-82
2022/02/03 11:26:32;;;;;;;18.00;7.35;;;;;;;3.84;100.00;100533.44;5016114;28;20033;-80
2022/02/03 11:37:37;;;;;;;17.58;6.38;;;;;;;3.88;100.00;100518.81;5019981;28;20375;-83
2022/02/03 11:40:36;;;;;;;16.90;7.03;;;;;;;4.00;100.00;100513.00;5020050;28;20021;-82
2022/02/03 11:52:00;;;;;;;12.98;4.90;;;;;;;4.05;100.00;100493.06;5017271;28;20096;-83
2022/02/03 12:24:29;;;;;;;9.80;4.18;;;;;;;4.08;100.00;100437.66;5014054;28;20658;-79
2022/02/03 12:29:32;;;;;;;8.77;3.88;;;;;;;4.01;100.00;100415.34;5015355;28;20111;-82
2022/02/03 12:39:55;;;;;;;8.07;3.78;;;;;;;4.06;100.00;100399.69;5012534;28;20053;-80
2022/02/03 12:44:50;;;;;;;5.93;3.88;;;;;;;4.07;100.00;100392.53;5009806;28;20030;-79
2022/02/03 12:47:15;;;;;;;7.53;4.10;;;;;;;4.05;100.00;100387.41;5010578;28;20407;-79
2022/02/03 12:49:41;;;;;;;8.57;3.80;;;;;;;3.94;100.00;100379.72;5013129;28;20026;-78
2022/02/03 12:52:26;;;;;;;6.80;3.78;;;;;;;4.03;100.00;100373.41;4998698;28;20064;-78
2022/02/03 12:54:52;;;;;;;;;;;;;;;4.03;100.00;100365.41;5035214;28;20025;-81
2022/02/03 12:57:28;;;;;;;6.43;3.53;;;;;;;3.99;100.00;100358.78;5013301;28;19914;-79
2022/02/03 13:02:54;;;;;;;8.68;3.63;;;;;;;3.94;100.00;100347.78;5009897;28;20057;-80
2022/02/03 13:05:21;;;;;;;11.70;4.30;;;;;;;3.96;100.00;100356.44;5021903;28;20029;-82
2022/02/03 13:07:50;;;;;;;6.22;3.90;;;;;;;3.94;100.00;100353.09;5021602;28;20060;-83
2022/02/03 13:10:21;;;;;;;8.65;4.07;;;;;;;3.94;100.00;100337.13;5024412;28;20026;-83
2022/02/03 13:12:55;;;;;;;8.68;4.38;;;;;;;3.76;100.00;100316.84;5021325;28;20023;-81
2022/02/03 13:15:49;;;;;;;7.93;3.95;;;;;;;3.98;100.00;100349.97;5027511;28;20108;-83
2022/02/03 13:18:26;;;;;;;8.27;4.07;;;;;;;4.01;100.00;100346.13;5033024;28;20056;-82
2022/02/03 13:21:04;;;;;;;10.70;4.38;;;;;;;3.98;100.00;100335.81;5035418;28;20060;-81
2022/02/03 13:23:32;;;;;;;7.15;3.70;;;;;;;3.96;100.00;100329.81;5013520;28;20049;-83
2022/02/03 13:28:47;;;;;;;11.25;5.32;;;;;;;4.02;100.00;100323.84;5013128;28;20087;-82
2022/02/03 13:31:29;;;;;;;10.95;3.70;;;;;;;3.95;100.00;100304.22;4999838;28;20053;-80
2022/02/03 13:34:24;;;;;;;12.82;4.20;;;;;;;4.00;100.00;100315.16;5011974;28;20037;-80
2022/02/03 13:36:51;;;;;;;9.00;3.78;;;;;;;3.96;100.00;100305.88;5029723;28;20057;-83
2022/02/03 13:39:26;;;;;;;10.60;4.10;;;;;;;3.90;100.00;100293.22;5022402;28;20030;-80
2022/02/03 13:42:10;;;;;;;6.13;3.30;;;;;;;3.97;100.00;100299.53;5015161;28;20029;-82
2022/02/03 13:44:36;;;;;;;7.78;4.32;;;;;;;3.98;100.00;100301.22;5016005;28;20100;-82
2022/02/03 13:47:19;;;;;;;7.10;3.50;;;;;;;4.05;100.00;100296.06;5018079;28;20022;-80
2022/02/03 13:49:58;;;;;;;6.90;3.28;;;;;;;3.96;100.00;100295.22;5022059;28;20029;-83
2022/02/03 13:52:33;;;;;;;10.57;3.78;;;;;;;4.00;100.00;100288.56;5022192;28;20021;-82
2022/02/03 14:22:07;;;;;;;5.78;3.00;;;;;;;4.06;100.00;100274.56;5005693;28;20064;-81
2022/02/03 14:29:47;;;;;;;5.28;3.20;;;;;;;3.68;100.00;100199.81;5079166;23;21453;-79
2022/02/03 14:32:16;;;;;;;6.20;3.22;;;;;;;3.59;100.00;100184.03;5048432;28;20029;-83
2022/02/03 14:34:42;;;;;;;3.88;2.72;;;;;;;4.06;100.00;100255.94;5039155;28;20722;-82
2022/02/03 14:37:16;;;;;;;15.02;3.80;;;;;;;3.14;100.00;100101.13;5040376;28;20068;-80
2022/02/03 14:42:14;;;;;;;3.40;2.72;;;;;;;4.11;100.00;100260.75;5035825;28;20044;-81
2022/02/03 14:44:40;;;;;;;4.57;3.03;;;;;;;4.14;100.00;100257.72;5040731;28;20018;-80
2022/02/03 14:47:07;;;;;;;5.43;2.85;;;;;;;4.11;100.00;100247.44;5038416;28;20025;-82
2022/02/03 14:49:34;;;;;;;3.58;2.72;;;;;;;4.13;100.00;100256.06;5036545;28;20032;-81
2022/02/03 14:59:45;;;;;;;3.63;2.67;;;;;;;4.09;100.00;100234.28;5053501;28;20053;-86
2022/02/03 15:02:10;;;;;;;4.68;2.97;;;;;;;4.05;100.00;100218.84;5034558;28;20033;-85
2022/02/03 15:04:39;;;;;;;4.32;2.70;;;;;;;4.11;100.00;100226.97;5051240;28;20041;-85
2022/02/03 15:07:07;;;;;;;5.78;3.00;;;;;;;4.05;100.00;100216.19;5052718;28;20052;-87
2022/02/03 15:12:04;;;;;;;3.13;2.85;;;;;;;4.09;100.00;100223.66;5027716;28;20017;-83
2022/02/03 15:14:31;;;;;;;4.85;3.25;;;;;;;4.03;100.00;100213.69;5014997;28;20025;-85
2022/02/03 15:16:57;;;;;;;4.82;3.92;;;;;;;3.92;100.00;100196.25;5045089;28;20021;-84
2022/02/03 15:19:22;;;;;;;5.03;4.20;;;;;;;3.99;100.00;100193.72;5046164;28;20029;-82
2022/02/03 15:21:48;;;;;;;5.30;4.80;;;;;;;4.03;100.00;100207.53;5046082;28;20036;-84
2022/02/03 15:24:13;;;;;;;5.50;5.00;;;;;;;4.03;100.00;100196.88;5045955;28;20041;-82
2022/02/03 15:26:39;;;;;;;8.05;5.32;;;;;;;4.04;100.00;100198.53;5045210;28;20029;-84
2022/02/03 15:29:05;;;;;;;7.22;5.38;;;;;;;3.99;100.00;100191.06;5026541;28;20093;-82
2022/02/03 15:31:32;;;;;;;8.98;6.07;;;;;;;4.01;100.00;100202.38;5024858;28;20050;-84
2022/02/03 15:34:07;;;;;;;7.35;4.72;;;;;;;4.01;100.00;100197.06;5014276;28;20054;-84
2022/02/03 15:36:35;;;;;;;6.13;4.90;;;;;;;3.98;100.00;100186.75;5029370;28;20076;-84
2022/02/03 15:39:06;;;;;;;5.90;5.30;;;;;;;3.96;100.00;100183.41;5033808;28;20105;-84
2022/02/03 15:41:31;;;;;;;5.97;5.35;;;;;;;3.81;100.00;100158.50;5031316;28;20029;-82
2022/02/03 15:43:59;;;;;;;4.68;3.90;;;;;;;3.95;100.00;100176.44;5028718;28;20124;-82
2022/02/03 15:46:26;;;;;;;5.18;4.70;;;;;;;3.96;100.00;100178.09;5022757;28;20030;-82
2022/02/03 15:56:59;;;;;;;6.40;4.57;;;;;;;3.97;100.00;100166.44;5048138;28;20099;-84
2022/02/03 16:18:08;;;;;;;5.35;4.85;;;;;;;3.98;100.00;100150.31;5055747;28;20025;-85
2022/02/03 16:20:41;;;;;;;4.70;4.30;;;;;;;3.88;100.00;100135.56;5055766;28;20034;-86
2022/02/03 16:50:57;;;;;;;7.55;5.93;;;;;;;3.93;100.00;100104.72;5042183;28;20118;-83
2022/02/03 16:53:23;;;;;;;6.80;5.97;;;;;;;4.16;100.00;100128.75;5035947;28;20044;-82
2022/02/03 16:55:48;;;;;;;6.25;5.30;;;;;;;4.17;100.00;100134.91;5046549;28;20037;-83
2022/02/03 16:58:14;;;;;;;8.35;7.07;;;;;;;4.21;100.00;100137.06;5050952;28;20045;-83
2022/02/03 17:00:40;;;;;;;7.15;6.10;;;;;;;4.23;100.00;100134.22;5045963;28;20033;-85
2022/02/03 17:03:06;;;;;;;6.75;6.10;;;;;;;4.20;100.00;100132.72;5051673;28;20030;-85
2022/02/03 17:05:34;;;;;;;12.18;7.68;;;;;;;4.19;100.00;100119.59;5051185;28;20032;-86
2022/02/03 17:08:00;;;;;;;7.85;6.53;;;;;;;4.21;100.00;100117.59;5048845;28;20185;-83
2022/02/03 17:10:25;;;;;;;9.55;6.95;;;;;;;4.21;100.00;100115.75;5050095;28;20037;-83
2022/02/03 17:12:50;;;;;;;7.60;6.72;;;;;;;4.25;100.00;100124.22;5031662;28;20037;-85
2022/02/03 17:15:18;;;;;;;7.47;6.78;;;;;;;4.30;100.00;100119.19;5045474;28;20033;-86
2022/02/03 17:17:45;;;;;;;9.57;7.22;;;;;;;4.33;100.00;100120.69;5038097;28;20056;-84
2022/02/03 17:20:11;;;;;;;8.35;7.30;;;;;;;4.33;100.00;100118.84;5050793;28;20026;-84
2022/02/03 17:22:42;;;;;;;7.80;7.00;;;;;;;4.37;100.00;100114.00;5030670;28;20347;-84
2022/02/03 17:25:17;;;;;;;8.57;6.88;;;;;;;4.20;100.00;100092.78;5035231;28;20026;-83
2022/02/03 17:27:53;;;;;;;7.90;6.97;;;;;;;4.35;100.00;100108.03;5026855;28;20028;-88
2022/02/03 17:30:26;;;;;;;7.10;5.97;;;;;;;4.23;100.00;100092.44;5053974;28;20064;-84
2022/02/03 18:03:07;;;;;;;8.65;7.57;;;;;;;4.66;100.00;100084.81;5047122;28;20067;-81
2022/02/03 18:37:38;;;;;;;21.10;10.70;;;;;;;5.08;100.00;100086.13;5037100;28;20033;-85
2022/02/03 18:45:59;;;;;;;22.35;11.63;;;;;;;5.10;100.00;100081.47;5047732;28;20048;-84
2022/02/03 18:51:06;;;;;;;24.52;12.25;;;;;;;5.18;100.00;100077.88;5050728;28;20117;-84
2022/02/03 18:53:38;;;;;;;19.33;9.45;;;;;;;5.14;100.00;100064.09;5035616;28;20053;-87
2022/02/03 20:08:11;;;;;;;40.85;15.45;;;;;;;6.25;100.00;100083.63;5038664;28;20127;-81
2022/02/03 20:10:42;;;;;;;38.13;14.82;;;;;;;6.18;100.00;100061.34;5037281;28;20083;-79
2022/02/03 20:13:07;;;;;;;37.25;15.48;;;;;;;6.29;100.00;100073.38;5035540;28;20026;-80
2022/02/03 20:15:37;;;;;;;41.67;16.15;;;;;;;6.31;100.00;100076.72;5034976;28;20094;-80
2022/02/03 20:18:11;;;;;;;41.55;16.00;;;;;;;6.29;100.00;100078.72;5036494;28;20112;-81
2022/02/03 20:20:37;;;;;;;36.95;14.43;;;;;;;6.13;100.00;100042.41;5014771;28;20038;-79
2022/02/03 20:23:08;;;;;;;52.88;16.23;;;;;;;6.23;100.00;100052.81;5033868;28;20029;-80
2022/02/03 20:25:34;;;;;;;41.78;14.70;;;;;;;6.31;100.00;100052.66;5036229;28;20465;-80
2022/02/03 20:28:02;;;;;;;43.55;15.55;;;;;;;6.35;100.00;100056.59;5037166;28;20025;-81
2022/02/03 20:30:28;;;;;;;49.47;16.60;;;;;;;6.38;100.00;100060.75;5046433;28;20045;-82
2022/02/03 20:32:53;;;;;;;37.10;14.60;;;;;;;6.39;100.00;100062.41;5038608;28;20484;-79
2022/02/03 20:35:19;;;;;;;47.60;16.33;;;;;;;6.38;100.00;100050.88;5032438;28;20033;-80
2022/02/03 20:37:44;;;;;;;35.83;14.70;;;;;;;6.38;100.00;100047.38;5031223;28;20033;-81
2022/02/03 20:40:10;;;;;;;45.75;15.38;;;;;;;6.42;100.00;100052.16;5020349;28;20025;-81
2022/02/03 20:42:36;;;;;;;47.42;16.15;;;;;;;6.41;100.00;100050.50;5035045;28;20025;-82
2022/02/03 20:45:03;;;;;;;53.70;16.10;;;;;;;6.38;100.00;100047.38;5007075;28;20059;-82
2022/02/03 20:47:31;;;;;;;38.83;15.07;;;;;;;6.44;100.00;100050.13;5034419;28;20036;-83
2022/02/03 20:49:57;;;;;;;37.53;14.43;;;;;;;6.43;100.00;100048.47;5032806;28;20032;-78
2022/02/03 20:52:23;;;;;;;43.05;15.00;;;;;;;6.39;100.00;100044.53;5017637;28;20033;-79
2022/02/03 20:54:48;;;;;;;43.05;15.52;;;;;;;6.46;100.00;100057.97;5034672;28;20179;-80
2022/02/03 20:57:14;;;;;;;39.17;14.60;;;;;;;6.28;100.00;100031.66;5021222;28;20383;-80
2022/02/03 20:59:57;;;;;;;38.38;14.27;;;;;;;6.44;100.00;100051.97;5017867;28;20040;-78
2022/02/03 21:03:12;;;;;;;50.70;15.18;;;;;;;6.42;100.00;100054.00;5034107;28;20029;-78
2022/02/03 21:05:16;;;;;;;36.00;13.50;;;;;;;6.44;100.00;100046.63;5011892;28;20084;-78
2022/02/03 21:07:43;;;;;;;43.05;13.93;;;;;;;6.46;100.00;100049.94;5030881;28;20024;-79
2022/02/03 21:10:13;;;;;;;34.55;12.65;;;;;;;6.34;100.00;100033.59;5026044;28;20381;-80
2022/02/03 21:12:39;;;;;;;24.45;11.10;;;;;;;6.35;100.00;100041.41;5020170;28;20037;-78
2022/02/03 21:15:06;;;;;;;28.23;10.77;;;;;;;6.32;100.00;100022.25;5033566;28;20410;-79
2022/02/03 21:17:32;;;;;;;29.95;11.82;;;;;;;6.40;100.00;100032.00;5031788;28;20061;-81
2022/02/03 21:20:07;;;;;;;34.20;12.18;;;;;;;6.45;100.00;100041.09;5027424;28;20125;-78
2022/02/03 21:22:37;;;;;;;33.53;12.40;;;;;;;6.44;100.00;100039.44;5028967;28;20029;-79
2022/02/03 21:25:32;;;;;;;32.72;13.20;;;;;;;6.47;100.00;100039.06;5035157;28;20619;-79
2022/02/03 21:28:04;;;;;;;33.90;13.30;;;;;;;6.39;100.00;100025.84;5027265;28;20089;-78
2022/02/03 21:30:30;;;;;;;40.72;14.25;;;;;;;6.42;100.00;100036.13;5029680;28;20052;-78
2022/02/03 21:32:55;;;;;;;43.05;15.65;;;;;;;6.49;100.00;100034.34;5027219;28;20073;-77
2022/02/03 21:35:22;;;;;;;45.30;16.45;;;;;;;6.42;100.00;100022.75;5040447;28;20036;-78
2022/02/03 21:37:49;;;;;;;44.53;15.50;;;;;;;6.39;100.00;100022.31;5031220;28;20036;-78
2022/02/03 21:40:15;;;;;;;41.85;15.80;;;;;;;6.51;100.00;100042.16;5031450;28;20536;-78
2022/02/03 21:42:41;;;;;;;42.40;15.65;;;;;;;6.47;100.00;100033.72;5032468;28;20116;-78
2022/02/03 21:45:08;;;;;;;43.10;17.00;;;;;;;6.50;100.00;100046.69;5031911;28;20149;-78
2022/02/03 21:47:34;;;;;;;56.10;17.85;;;;;;;6.52;100.00;100035.81;5028583;28;20036;-80
2022/02/03 21:50:01;;;;;;;65.65;20.02;;;;;;;6.51;100.00;100040.31;5031119;28;20099;-78
2022/02/03 21:52:36;;;;;;;62.53;20.73;;;;;;;6.47;100.00;100038.22;5029170;28;20027;-78
2022/02/03 21:55:05;;;;;;;67.03;21.33;;;;;;;6.51;100.00;100039.50;5028257;28;20589;-77
2022/02/03 21:57:31;;;;;;;73.10;22.15;;;;;;;6.46;100.00;100018.72;5022719;28;20030;-78
2022/02/03 21:59:56;;;;;;;70.72;21.08;;;;;;;6.52;100.00;100022.44;5027408;28;20037;-78
2022/02/03 22:02:22;;;;;;;60.13;20.42;;;;;;;6.48;100.00;100021.16;5032889;28;20032;-79
2022/02/03 22:04:48;;;;;;;63.47;20.90;;;;;;;6.48;100.00;100032.69;5017676;28;20128;-78
2022/02/03 22:07:13;;;;;;;72.43;20.83;;;;;;;6.46;100.00;100033.91;5013368;28;20091;-79
2022/02/03 22:09:40;;;;;;;78.80;22.27;;;;;;;6.50;100.00;100027.16;5012564;28;20101;-79
2022/02/03 22:12:06;;;;;;;64.88;22.35;;;;;;;6.52;100.00;100030.44;5013645;28;20521;-79
2022/02/03 22:14:32;;;;;;;66.60;21.40;;;;;;;6.50;100.00;100027.16;5029943;28;20098;-78
2022/02/03 22:16:59;;;;;;;75.20;22.65;;;;;;;6.46;100.00;100026.72;5030708;28;20112;-80
2022/02/03 22:19:25;;;;;;;69.85;22.02;;;;;;;6.47;100.00;100028.38;5039974;28;20033;-79
2022/02/03 22:24:44;;;;;;;98.15;23.33;;;;;;;6.48;100.00;100043.38;5031537;28;20063;-78
2022/02/03 22:27:29;;;;;;;90.38;22.77;;;;;;;6.45;100.00;100043.75;5019604;28;20040;-80
2022/02/03 22:43:51;;;;;;;70.13;20.80;;;;;;;6.40;100.00;100026.66;5032976;28;20093;-78
2022/02/03 22:48:57;;;;;;;84.47;22.10;;;;;;;6.33;100.00;100018.59;5031361;28;20064;-78
2022/02/03 22:51:23;;;;;;;83.78;22.02;;;;;;;6.30;100.00;100026.97;5032077;28;20053;-77